sensor_id;sensor_type;location;lat;lon;timestamp;P1;durP1;ratioP1;P2;durP2;ratioP2
50605;SDS011;36557;53.572;10.170;2023-04-21T00:02:03;13.43;;;7.28;;
50605;SDS011;36557;53.572;10.170;2023-04-21T00:04:29;14.93;;;7.55;;
50605;SDS011;36557;53.572;10.170;2023-04-21T00:06:56;13.43;;;6.50;;
50605;SDS011;36557;53.572;10.170;2023-04-21T00:09:25;14.88;;;7.38;;
50605;SDS011;36557;53.572;10.170;2023-04-21T00:11:51;17.10;;;7.05;;
50605;SDS011;36557;53.572;10.170;2023-04-21T00:14:17;11.75;;;7.10;;
50605;SDS011;36557;53.572;10.170;2023-04-21T00:16:43;10.82;;;6.57;;
50605;SDS011;36557;53.572;10.170;2023-04-21T00:19:09;15.68;;;7.53;;
50605;SDS011;36557;53.572;10.170;2023-04-21T00:21:38;14.88;;;6.70;;
50605;SDS011;36557;53.572;10.170;2023-04-21T00:24:04;13.77;;;7.50;;
50605;SDS011;36557;53.572;10.170;2023-04-21T00:26:30;13.10;;;6.93;;
50605;SDS011;36557;53.572;10.170;2023-04-21T00:28:56;10.15;;;6.55;;
50605;SDS011;36557;53.572;10.170;2023-04-21T00:31:21;11.77;;;6.15;;
50605;SDS011;36557;53.572;10.170;2023-04-21T00:33:50;18.13;;;7.53;;
50605;SDS011;36557;53.572;10.170;2023-04-21T00:36:16;15.43;;;7.43;;
50605;SDS011;36557;53.572;10.170;2023-04-21T00:38:41;15.90;;;7.78;;
50605;SDS011;36557;53.572;10.170;2023-04-21T00:41:07;16.20;;;6.97;;
50605;SDS011;36557;53.572;10.170;2023-04-21T00:43:33;12.65;;;6.88;;
50605;SDS011;36557;53.572;10.170;2023-04-21T00:45:59;15.85;;;6.88;;
50605;SDS011;36557;53.572;10.170;2023-04-21T00:48:24;14.25;;;6.72;;
50605;SDS011;36557;53.572;10.170;2023-04-21T00:50:50;19.02;;;7.15;;
50605;SDS011;36557;53.572;10.170;2023-04-21T00:53:16;14.43;;;7.53;;
50605;SDS011;36557;53.572;10.170;2023-04-21T00:55:42;15.65;;;7.40;;
50605;SDS011;36557;53.572;10.170;2023-04-21T00:58:08;17.10;;;7.50;;
50605;SDS011;36557;53.572;10.170;2023-04-21T01:00:37;12.63;;;6.55;;
50605;SDS011;36557;53.572;10.170;2023-04-21T01:03:03;12.93;;;6.88;;
50605;SDS011;36557;53.572;10.170;2023-04-21T01:05:30;12.38;;;6.88;;
50605;SDS011;36557;53.572;10.170;2023-04-21T01:07:56;13.57;;;7.28;;
50605;SDS011;36557;53.572;10.170;2023-04-21T01:10:22;12.30;;;6.35;;
50605;SDS011;36557;53.572;10.170;2023-04-21T01:12:51;14.45;;;7.50;;
50605;SDS011;36557;53.572;10.170;2023-04-21T01:15:16;13.07;;;7.00;;
50605;SDS011;36557;53.572;10.170;2023-04-21T01:17:42;14.65;;;6.60;;
50605;SDS011;36557;53.572;10.170;2023-04-21T01:20:11;11.82;;;6.43;;
50605;SDS011;36557;53.572;10.170;2023-04-21T01:22:39;15.20;;;6.88;;
50605;SDS011;36557;53.572;10.170;2023-04-21T01:25:09;17.13;;;7.63;;
50605;SDS011;36557;53.572;10.170;2023-04-21T01:27:35;13.25;;;6.90;;
50605;SDS011;36557;53.572;10.170;2023-04-21T01:30:01;14.18;;;5.65;;
50605;SDS011;36557;53.572;10.170;2023-04-21T01:32:28;14.50;;;6.70;;
50605;SDS011;36557;53.572;10.170;2023-04-21T01:34:55;14.95;;;6.97;;
50605;SDS011;36557;53.572;10.170;2023-04-21T01:37:24;16.92;;;5.97;;
50605;SDS011;36557;53.572;10.170;2023-04-21T01:39:53;13.07;;;6.40;;
50605;SDS011;36557;53.572;10.170;2023-04-21T01:42:21;13.80;;;6.63;;
50605;SDS011;36557;53.572;10.170;2023-04-21T01:44:48;13.55;;;6.38;;
50605;SDS011;36557;53.572;10.170;2023-04-21T01:47:14;15.75;;;6.63;;
50605;SDS011;36557;53.572;10.170;2023-04-21T01:49:40;12.07;;;6.85;;
50605;SDS011;36557;53.572;10.170;2023-04-21T01:52:06;14.00;;;6.72;;
50605;SDS011;36557;53.572;10.170;2023-04-21T01:54:32;13.23;;;6.43;;
50605;SDS011;36557;53.572;10.170;2023-04-21T01:56:58;12.82;;;5.80;;
50605;SDS011;36557;53.572;10.170;2023-04-21T01:59:24;12.98;;;7.15;;
50605;SDS011;36557;53.572;10.170;2023-04-21T02:01:50;12.75;;;7.07;;
50605;SDS011;36557;53.572;10.170;2023-04-21T02:04:16;14.95;;;6.43;;
50605;SDS011;36557;53.572;10.170;2023-04-21T02:06:42;13.70;;;6.20;;
50605;SDS011;36557;53.572;10.170;2023-04-21T02:09:07;12.02;;;6.05;;
50605;SDS011;36557;53.572;10.170;2023-04-21T02:11:33;14.68;;;6.25;;
50605;SDS011;36557;53.572;10.170;2023-04-21T02:13:59;14.65;;;6.88;;
50605;SDS011;36557;53.572;10.170;2023-04-21T02:16:26;12.20;;;6.57;;
50605;SDS011;36557;53.572;10.170;2023-04-21T02:18:55;14.55;;;7.07;;
50605;SDS011;36557;53.572;10.170;2023-04-21T02:21:22;16.65;;;6.70;;
50605;SDS011;36557;53.572;10.170;2023-04-21T02:23:48;11.82;;;6.60;;
50605;SDS011;36557;53.572;10.170;2023-04-21T02:26:15;13.38;;;6.50;;
50605;SDS011;36557;53.572;10.170;2023-04-21T02:28:41;13.95;;;5.82;;
50605;SDS011;36557;53.572;10.170;2023-04-21T02:31:06;12.98;;;6.22;;
50605;SDS011;36557;53.572;10.170;2023-04-21T02:33:32;13.75;;;6.55;;
50605;SDS011;36557;53.572;10.170;2023-04-21T02:36:02;12.98;;;5.95;;
50605;SDS011;36557;53.572;10.170;2023-04-21T02:38:28;13.50;;;6.43;;
50605;SDS011;36557;53.572;10.170;2023-04-21T02:40:55;12.68;;;5.30;;
50605;SDS011;36557;53.572;10.170;2023-04-21T02:43:21;10.80;;;5.90;;
50605;SDS011;36557;53.572;10.170;2023-04-21T02:45:47;13.90;;;6.20;;
50605;SDS011;36557;53.572;10.170;2023-04-21T02:48:13;12.65;;;6.22;;
50605;SDS011;36557;53.572;10.170;2023-04-21T02:50:38;13.73;;;6.38;;
50605;SDS011;36557;53.572;10.170;2023-04-21T02:53:05;11.25;;;5.25;;
50605;SDS011;36557;53.572;10.170;2023-04-21T02:55:31;14.90;;;6.47;;
50605;SDS011;36557;53.572;10.170;2023-04-21T02:57:57;17.95;;;6.20;;
50605;SDS011;36557;53.572;10.170;2023-04-21T03:00:23;12.95;;;6.65;;
50605;SDS011;36557;53.572;10.170;2023-04-21T03:02:49;13.05;;;6.13;;
50605;SDS011;36557;53.572;10.170;2023-04-21T03:05:17;12.05;;;6.10;;
50605;SDS011;36557;53.572;10.170;2023-04-21T03:07:46;11.73;;;6.25;;
50605;SDS011;36557;53.572;10.170;2023-04-21T03:10:11;12.40;;;6.15;;
50605;SDS011;36557;53.572;10.170;2023-04-21T03:12:37;13.55;;;7.35;;
50605;SDS011;36557;53.572;10.170;2023-04-21T03:15:03;11.13;;;6.13;;
50605;SDS011;36557;53.572;10.170;2023-04-21T03:17:29;13.88;;;6.70;;
50605;SDS011;36557;53.572;10.170;2023-04-21T03:19:55;11.80;;;6.28;;
50605;SDS011;36557;53.572;10.170;2023-04-21T03:22:21;13.60;;;5.82;;
50605;SDS011;36557;53.572;10.170;2023-04-21T03:24:47;12.45;;;6.47;;
50605;SDS011;36557;53.572;10.170;2023-04-21T03:27:12;14.98;;;6.25;;
50605;SDS011;36557;53.572;10.170;2023-04-21T03:29:38;9.93;;;5.70;;
50605;SDS011;36557;53.572;10.170;2023-04-21T03:32:04;13.30;;;6.63;;
50605;SDS011;36557;53.572;10.170;2023-04-21T03:34:30;13.68;;;7.13;;
50605;SDS011;36557;53.572;10.170;2023-04-21T03:36:56;16.77;;;7.28;;
50605;SDS011;36557;53.572;10.170;2023-04-21T03:39:21;12.80;;;6.63;;
50605;SDS011;36557;53.572;10.170;2023-04-21T03:41:47;12.27;;;6.15;;
50605;SDS011;36557;53.572;10.170;2023-04-21T03:44:13;12.00;;;6.45;;
50605;SDS011;36557;53.572;10.170;2023-04-21T03:46:39;11.23;;;6.35;;
50605;SDS011;36557;53.572;10.170;2023-04-21T03:49:05;12.77;;;6.38;;
50605;SDS011;36557;53.572;10.170;2023-04-21T03:51:31;12.45;;;6.93;;
50605;SDS011;36557;53.572;10.170;2023-04-21T03:53:57;10.20;;;6.40;;
50605;SDS011;36557;53.572;10.170;2023-04-21T03:56:23;13.05;;;6.40;;
50605;SDS011;36557;53.572;10.170;2023-04-21T03:58:49;12.73;;;6.25;;
50605;SDS011;36557;53.572;10.170;2023-04-21T04:01:15;16.55;;;6.63;;
50605;SDS011;36557;53.572;10.170;2023-04-21T04:03:41;14.18;;;5.95;;
50605;SDS011;36557;53.572;10.170;2023-04-21T04:06:07;9.30;;;6.00;;
50605;SDS011;36557;53.572;10.170;2023-04-21T04:08:32;10.68;;;6.05;;
50605;SDS011;36557;53.572;10.170;2023-04-21T04:10:58;12.93;;;6.45;;
50605;SDS011;36557;53.572;10.170;2023-04-21T04:13:24;12.27;;;6.35;;
50605;SDS011;36557;53.572;10.170;2023-04-21T04:15:51;12.95;;;6.72;;
50605;SDS011;36557;53.572;10.170;2023-04-21T04:18:17;16.08;;;6.57;;
50605;SDS011;36557;53.572;10.170;2023-04-21T04:20:43;12.48;;;6.10;;
50605;SDS011;36557;53.572;10.170;2023-04-21T04:23:09;15.75;;;6.55;;
50605;SDS011;36557;53.572;10.170;2023-04-21T04:25:35;11.05;;;6.80;;
50605;SDS011;36557;53.572;10.170;2023-04-21T04:28:01;11.60;;;6.68;;
50605;SDS011;36557;53.572;10.170;2023-04-21T04:30:27;12.60;;;6.18;;
50605;SDS011;36557;53.572;10.170;2023-04-21T04:32:53;13.40;;;6.80;;
50605;SDS011;36557;53.572;10.170;2023-04-21T04:35:21;13.07;;;6.90;;
50605;SDS011;36557;53.572;10.170;2023-04-21T04:37:47;11.73;;;6.15;;
50605;SDS011;36557;53.572;10.170;2023-04-21T04:40:14;11.88;;;6.45;;
50605;SDS011;36557;53.572;10.170;2023-04-21T04:42:40;17.40;;;6.75;;
50605;SDS011;36557;53.572;10.170;2023-04-21T04:45:06;10.35;;;6.38;;
50605;SDS011;36557;53.572;10.170;2023-04-21T04:47:33;12.23;;;6.55;;
50605;SDS011;36557;53.572;10.170;2023-04-21T04:49:59;15.10;;;6.55;;
50605;SDS011;36557;53.572;10.170;2023-04-21T04:52:25;10.60;;;6.38;;
50605;SDS011;36557;53.572;10.170;2023-04-21T04:54:51;15.13;;;6.70;;
50605;SDS011;36557;53.572;10.170;2023-04-21T04:57:17;10.65;;;5.60;;
50605;SDS011;36557;53.572;10.170;2023-04-21T04:59:42;11.20;;;5.57;;
50605;SDS011;36557;53.572;10.170;2023-04-21T05:02:08;10.77;;;6.13;;
50605;SDS011;36557;53.572;10.170;2023-04-21T05:04:35;11.73;;;6.43;;
50605;SDS011;36557;53.572;10.170;2023-04-21T05:07:00;14.80;;;6.90;;
50605;SDS011;36557;53.572;10.170;2023-04-21T05:09:26;11.60;;;6.13;;
50605;SDS011;36557;53.572;10.170;2023-04-21T05:11:52;13.02;;;6.85;;
50605;SDS011;36557;53.572;10.170;2023-04-21T05:14:18;13.32;;;6.25;;
50605;SDS011;36557;53.572;10.170;2023-04-21T05:16:43;15.25;;;6.55;;
50605;SDS011;36557;53.572;10.170;2023-04-21T05:19:09;10.60;;;6.53;;
50605;SDS011;36557;53.572;10.170;2023-04-21T05:21:35;12.82;;;6.13;;
50605;SDS011;36557;53.572;10.170;2023-04-21T05:24:00;11.75;;;5.65;;
50605;SDS011;36557;53.572;10.170;2023-04-21T05:26:27;14.13;;;6.63;;
50605;SDS011;36557;53.572;10.170;2023-04-21T05:28:56;12.35;;;6.60;;
50605;SDS011;36557;53.572;10.170;2023-04-21T05:31:23;12.43;;;6.43;;
50605;SDS011;36557;53.572;10.170;2023-04-21T05:33:48;11.02;;;5.68;;
50605;SDS011;36557;53.572;10.170;2023-04-21T05:36:14;13.98;;;6.20;;
50605;SDS011;36557;53.572;10.170;2023-04-21T05:38:40;13.50;;;7.05;;
50605;SDS011;36557;53.572;10.170;2023-04-21T05:41:06;12.65;;;6.40;;
50605;SDS011;36557;53.572;10.170;2023-04-21T05:43:32;13.55;;;6.40;;
50605;SDS011;36557;53.572;10.170;2023-04-21T05:45:59;13.77;;;6.70;;
50605;SDS011;36557;53.572;10.170;2023-04-21T05:48:25;13.73;;;6.10;;
50605;SDS011;36557;53.572;10.170;2023-04-21T05:50:51;14.30;;;6.22;;
50605;SDS011;36557;53.572;10.170;2023-04-21T05:53:16;14.77;;;6.35;;
50605;SDS011;36557;53.572;10.170;2023-04-21T05:55:42;12.27;;;6.88;;
50605;SDS011;36557;53.572;10.170;2023-04-21T05:58:08;10.27;;;5.78;;
50605;SDS011;36557;53.572;10.170;2023-04-21T06:00:33;9.77;;;6.43;;
50605;SDS011;36557;53.572;10.170;2023-04-21T06:02:59;11.30;;;6.13;;
50605;SDS011;36557;53.572;10.170;2023-04-21T06:05:25;15.27;;;6.90;;
50605;SDS011;36557;53.572;10.170;2023-04-21T06:07:51;10.57;;;5.93;;
50605;SDS011;36557;53.572;10.170;2023-04-21T06:10:17;11.38;;;5.80;;
50605;SDS011;36557;53.572;10.170;2023-04-21T06:12:43;14.20;;;6.72;;
50605;SDS011;36557;53.572;10.170;2023-04-21T06:15:09;11.63;;;6.25;;
50605;SDS011;36557;53.572;10.170;2023-04-21T06:17:35;12.50;;;7.70;;
50605;SDS011;36557;53.572;10.170;2023-04-21T06:20:00;9.63;;;5.78;;
50605;SDS011;36557;53.572;10.170;2023-04-21T06:22:26;10.85;;;5.65;;
50605;SDS011;36557;53.572;10.170;2023-04-21T06:24:52;12.10;;;5.82;;
50605;SDS011;36557;53.572;10.170;2023-04-21T06:27:18;11.95;;;6.43;;
50605;SDS011;36557;53.572;10.170;2023-04-21T06:29:43;15.20;;;6.88;;
50605;SDS011;36557;53.572;10.170;2023-04-21T06:32:09;12.30;;;6.32;;
50605;SDS011;36557;53.572;10.170;2023-04-21T06:34:36;12.30;;;6.38;;
50605;SDS011;36557;53.572;10.170;2023-04-21T06:37:02;11.70;;;6.00;;
50605;SDS011;36557;53.572;10.170;2023-04-21T06:39:28;10.52;;;6.45;;
50605;SDS011;36557;53.572;10.170;2023-04-21T06:41:54;13.65;;;6.55;;
50605;SDS011;36557;53.572;10.170;2023-04-21T06:44:22;12.25;;;6.38;;
50605;SDS011;36557;53.572;10.170;2023-04-21T06:46:47;10.82;;;6.43;;
50605;SDS011;36557;53.572;10.170;2023-04-21T06:49:13;12.80;;;6.40;;
50605;SDS011;36557;53.572;10.170;2023-04-21T06:51:39;15.40;;;6.75;;
50605;SDS011;36557;53.572;10.170;2023-04-21T06:54:05;10.90;;;5.82;;
50605;SDS011;36557;53.572;10.170;2023-04-21T06:56:30;12.05;;;5.93;;
50605;SDS011;36557;53.572;10.170;2023-04-21T06:58:56;11.48;;;6.20;;
50605;SDS011;36557;53.572;10.170;2023-04-21T07:01:22;11.30;;;6.55;;
50605;SDS011;36557;53.572;10.170;2023-04-21T07:03:48;8.43;;;5.90;;
50605;SDS011;36557;53.572;10.170;2023-04-21T07:06:15;10.27;;;6.50;;
50605;SDS011;36557;53.572;10.170;2023-04-21T07:08:41;12.10;;;6.18;;
50605;SDS011;36557;53.572;10.170;2023-04-21T07:11:06;9.77;;;5.57;;
50605;SDS011;36557;53.572;10.170;2023-04-21T07:13:32;9.35;;;5.18;;
50605;SDS011;36557;53.572;10.170;2023-04-21T07:15:58;11.13;;;5.28;;
50605;SDS011;36557;53.572;10.170;2023-04-21T07:18:24;8.25;;;5.22;;
50605;SDS011;36557;53.572;10.170;2023-04-21T07:20:49;9.02;;;6.22;;
50605;SDS011;36557;53.572;10.170;2023-04-21T07:23:15;10.35;;;5.57;;
50605;SDS011;36557;53.572;10.170;2023-04-21T07:25:41;10.70;;;5.70;;
50605;SDS011;36557;53.572;10.170;2023-04-21T07:28:07;12.82;;;5.63;;
50605;SDS011;36557;53.572;10.170;2023-04-21T07:30:33;10.55;;;5.82;;
50605;SDS011;36557;53.572;10.170;2023-04-21T07:32:58;9.30;;;5.47;;
50605;SDS011;36557;53.572;10.170;2023-04-21T07:35:24;13.15;;;5.90;;
50605;SDS011;36557;53.572;10.170;2023-04-21T07:37:50;12.18;;;6.03;;
50605;SDS011;36557;53.572;10.170;2023-04-21T07:40:16;8.80;;;5.38;;
50605;SDS011;36557;53.572;10.170;2023-04-21T07:42:42;10.05;;;5.88;;
50605;SDS011;36557;53.572;10.170;2023-04-21T07:45:08;12.23;;;5.32;;
50605;SDS011;36557;53.572;10.170;2023-04-21T07:47:34;10.07;;;5.63;;
50605;SDS011;36557;53.572;10.170;2023-04-21T07:49:59;10.15;;;5.50;;
50605;SDS011;36557;53.572;10.170;2023-04-21T07:52:25;9.98;;;5.80;;
50605;SDS011;36557;53.572;10.170;2023-04-21T07:54:51;9.35;;;5.38;;
50605;SDS011;36557;53.572;10.170;2023-04-21T07:57:17;11.68;;;5.80;;
50605;SDS011;36557;53.572;10.170;2023-04-21T07:59:43;13.45;;;5.72;;
50605;SDS011;36557;53.572;10.170;2023-04-21T08:02:08;10.32;;;5.68;;
50605;SDS011;36557;53.572;10.170;2023-04-21T08:04:34;12.23;;;5.63;;
50605;SDS011;36557;53.572;10.170;2023-04-21T08:07:00;9.48;;;5.82;;
50605;SDS011;36557;53.572;10.170;2023-04-21T08:09:26;9.15;;;5.57;;
50605;SDS011;36557;53.572;10.170;2023-04-21T08:11:52;11.38;;;6.18;;
50605;SDS011;36557;53.572;10.170;2023-04-21T08:14:19;10.20;;;6.07;;
50605;SDS011;36557;53.572;10.170;2023-04-21T08:16:45;10.35;;;5.70;;
50605;SDS011;36557;53.572;10.170;2023-04-21T08:19:11;11.40;;;5.72;;
50605;SDS011;36557;53.572;10.170;2023-04-21T08:21:36;13.15;;;5.80;;
50605;SDS011;36557;53.572;10.170;2023-04-21T08:24:03;8.82;;;5.75;;
50605;SDS011;36557;53.572;10.170;2023-04-21T08:26:29;7.30;;;5.95;;
50605;SDS011;36557;53.572;10.170;2023-04-21T08:28:57;9.70;;;5.65;;
50605;SDS011;36557;53.572;10.170;2023-04-21T08:31:24;10.23;;;5.80;;
50605;SDS011;36557;53.572;10.170;2023-04-21T08:33:50;8.60;;;5.15;;
50605;SDS011;36557;53.572;10.170;2023-04-21T08:36:15;11.93;;;5.50;;
50605;SDS011;36557;53.572;10.170;2023-04-21T08:38:42;8.73;;;5.40;;
50605;SDS011;36557;53.572;10.170;2023-04-21T08:41:08;12.07;;;6.38;;
50605;SDS011;36557;53.572;10.170;2023-04-21T08:43:35;8.23;;;5.55;;
50605;SDS011;36557;53.572;10.170;2023-04-21T08:46:05;10.55;;;5.53;;
50605;SDS011;36557;53.572;10.170;2023-04-21T08:48:33;9.00;;;5.70;;
50605;SDS011;36557;53.572;10.170;2023-04-21T08:51:01;13.25;;;5.47;;
50605;SDS011;36557;53.572;10.170;2023-04-21T08:53:27;8.38;;;5.75;;
50605;SDS011;36557;53.572;10.170;2023-04-21T08:55:54;8.15;;;5.65;;
50605;SDS011;36557;53.572;10.170;2023-04-21T08:58:20;9.82;;;5.82;;
50605;SDS011;36557;53.572;10.170;2023-04-21T09:00:47;9.18;;;5.57;;
50605;SDS011;36557;53.572;10.170;2023-04-21T09:03:13;10.43;;;5.93;;
50605;SDS011;36557;53.572;10.170;2023-04-21T09:05:58;8.63;;;5.75;;
50605;SDS011;36557;53.572;10.170;2023-04-21T09:08:26;8.45;;;6.30;;
50605;SDS011;36557;53.572;10.170;2023-04-21T09:10:53;8.73;;;6.47;;
50605;SDS011;36557;53.572;10.170;2023-04-21T09:13:20;9.77;;;6.18;;
50605;SDS011;36557;53.572;10.170;2023-04-21T09:15:57;11.00;;;6.10;;
50605;SDS011;36557;53.572;10.170;2023-04-21T09:18:25;10.25;;;5.97;;
50605;SDS011;36557;53.572;10.170;2023-04-21T09:21:03;10.00;;;5.50;;
50605;SDS011;36557;53.572;10.170;2023-04-21T09:26:13;8.15;;;5.68;;
50605;SDS011;36557;53.572;10.170;2023-04-21T09:28:43;8.70;;;5.40;;
50605;SDS011;36557;53.572;10.170;2023-04-21T09:31:14;9.20;;;5.93;;
50605;SDS011;36557;53.572;10.170;2023-04-21T09:33:47;9.73;;;5.60;;
50605;SDS011;36557;53.572;10.170;2023-04-21T09:36:18;10.93;;;5.13;;
50605;SDS011;36557;53.572;10.170;2023-04-21T09:38:57;10.48;;;6.10;;
50605;SDS011;36557;53.572;10.170;2023-04-21T09:41:25;10.13;;;5.45;;
50605;SDS011;36557;53.572;10.170;2023-04-21T09:43:51;11.75;;;5.55;;
50605;SDS011;36557;53.572;10.170;2023-04-21T09:46:17;10.43;;;5.55;;
50605;SDS011;36557;53.572;10.170;2023-04-21T09:48:45;8.63;;;5.20;;
50605;SDS011;36557;53.572;10.170;2023-04-21T09:51:12;12.05;;;6.07;;
50605;SDS011;36557;53.572;10.170;2023-04-21T09:53:39;10.75;;;5.65;;
50605;SDS011;36557;53.572;10.170;2023-04-21T09:56:15;8.10;;;5.22;;
50605;SDS011;36557;53.572;10.170;2023-04-21T09:58:45;10.25;;;6.10;;
50605;SDS011;36557;53.572;10.170;2023-04-21T10:01:15;9.30;;;5.35;;
50605;SDS011;36557;53.572;10.170;2023-04-21T10:03:42;8.13;;;5.10;;
50605;SDS011;36557;53.572;10.170;2023-04-21T10:06:10;8.32;;;5.72;;
50605;SDS011;36557;53.572;10.170;2023-04-21T10:08:36;10.23;;;5.47;;
50605;SDS011;36557;53.572;10.170;2023-04-21T10:11:02;7.82;;;5.22;;
50605;SDS011;36557;53.572;10.170;2023-04-21T10:13:29;11.05;;;5.35;;
50605;SDS011;36557;53.572;10.170;2023-04-21T10:16:02;14.05;;;6.07;;
50605;SDS011;36557;53.572;10.170;2023-04-21T10:18:31;15.27;;;5.55;;
50605;SDS011;36557;53.572;10.170;2023-04-21T10:21:07;9.05;;;5.28;;
50605;SDS011;36557;53.572;10.170;2023-04-21T10:23:35;9.80;;;5.70;;
50605;SDS011;36557;53.572;10.170;2023-04-21T10:26:18;8.52;;;5.35;;
50605;SDS011;36557;53.572;10.170;2023-04-21T10:28:58;10.95;;;4.97;;
50605;SDS011;36557;53.572;10.170;2023-04-21T10:31:32;10.00;;;5.60;;
50605;SDS011;36557;53.572;10.170;2023-04-21T10:40:02;10.38;;;5.20;;
50605;SDS011;36557;53.572;10.170;2023-04-21T10:42:20;9.35;;;5.22;;
50605;SDS011;36557;53.572;10.170;2023-04-21T10:47:25;7.22;;;4.93;;
50605;SDS011;36557;53.572;10.170;2023-04-21T10:49:54;10.20;;;5.30;;
50605;SDS011;36557;53.572;10.170;2023-04-21T10:52:22;10.48;;;5.05;;
50605;SDS011;36557;53.572;10.170;2023-04-21T10:57:23;7.38;;;5.00;;
50605;SDS011;36557;53.572;10.170;2023-04-21T10:59:49;7.40;;;4.80;;
50605;SDS011;36557;53.572;10.170;2023-04-21T11:02:16;9.88;;;5.32;;
50605;SDS011;36557;53.572;10.170;2023-04-21T11:04:43;11.27;;;5.38;;
50605;SDS011;36557;53.572;10.170;2023-04-21T11:07:15;11.52;;;5.18;;
50605;SDS011;36557;53.572;10.170;2023-04-21T11:09:42;9.25;;;4.90;;
50605;SDS011;36557;53.572;10.170;2023-04-21T11:12:11;8.63;;;4.97;;
50605;SDS011;36557;53.572;10.170;2023-04-21T11:14:38;8.48;;;4.88;;
50605;SDS011;36557;53.572;10.170;2023-04-21T11:17:09;8.07;;;4.70;;
50605;SDS011;36557;53.572;10.170;2023-04-21T11:22:05;6.38;;;4.90;;
50605;SDS011;36557;53.572;10.170;2023-04-21T11:24:31;8.00;;;5.03;;
50605;SDS011;36557;53.572;10.170;2023-04-21T11:26:57;7.53;;;4.85;;
50605;SDS011;36557;53.572;10.170;2023-04-21T11:29:25;7.43;;;5.35;;
50605;SDS011;36557;53.572;10.170;2023-04-21T11:31:50;11.40;;;3.97;;
50605;SDS011;36557;53.572;10.170;2023-04-21T11:34:19;9.60;;;5.35;;
50605;SDS011;36557;53.572;10.170;2023-04-21T11:36:45;5.43;;;4.53;;
50605;SDS011;36557;53.572;10.170;2023-04-21T11:39:13;6.82;;;4.70;;
50605;SDS011;36557;53.572;10.170;2023-04-21T11:41:41;8.60;;;4.97;;
50605;SDS011;36557;53.572;10.170;2023-04-21T11:44:08;9.07;;;5.90;;
50605;SDS011;36557;53.572;10.170;2023-04-21T11:46:34;7.07;;;5.07;;
50605;SDS011;36557;53.572;10.170;2023-04-21T11:49:03;7.80;;;4.53;;
50605;SDS011;36557;53.572;10.170;2023-04-21T11:51:42;8.00;;;5.38;;
50605;SDS011;36557;53.572;10.170;2023-04-21T11:54:09;8.85;;;4.95;;
50605;SDS011;36557;53.572;10.170;2023-04-21T11:56:39;8.10;;;4.60;;
50605;SDS011;36557;53.572;10.170;2023-04-21T12:01:32;8.05;;;4.90;;
50605;SDS011;36557;53.572;10.170;2023-04-21T12:03:58;6.75;;;4.72;;
50605;SDS011;36557;53.572;10.170;2023-04-21T12:06:24;8.77;;;4.80;;
50605;SDS011;36557;53.572;10.170;2023-04-21T12:08:54;7.10;;;4.40;;
50605;SDS011;36557;53.572;10.170;2023-04-21T12:11:23;7.47;;;4.50;;
50605;SDS011;36557;53.572;10.170;2023-04-21T12:13:55;7.25;;;4.75;;
50605;SDS011;36557;53.572;10.170;2023-04-21T12:16:23;8.13;;;5.10;;
50605;SDS011;36557;53.572;10.170;2023-04-21T12:18:51;6.13;;;4.57;;
50605;SDS011;36557;53.572;10.170;2023-04-21T12:21:17;7.00;;;5.15;;
50605;SDS011;36557;53.572;10.170;2023-04-21T12:23:43;9.73;;;4.75;;
50605;SDS011;36557;53.572;10.170;2023-04-21T12:26:09;9.60;;;4.60;;
50605;SDS011;36557;53.572;10.170;2023-04-21T12:28:36;8.98;;;4.65;;
50605;SDS011;36557;53.572;10.170;2023-04-21T12:31:03;6.45;;;4.60;;
50605;SDS011;36557;53.572;10.170;2023-04-21T12:33:29;6.50;;;4.57;;
50605;SDS011;36557;53.572;10.170;2023-04-21T12:35:55;5.57;;;3.80;;
50605;SDS011;36557;53.572;10.170;2023-04-21T12:38:21;12.38;;;4.82;;
50605;SDS011;36557;53.572;10.170;2023-04-21T12:40:47;9.95;;;4.40;;
50605;SDS011;36557;53.572;10.170;2023-04-21T12:43:12;7.10;;;4.40;;
50605;SDS011;36557;53.572;10.170;2023-04-21T12:45:38;7.35;;;4.22;;
50605;SDS011;36557;53.572;10.170;2023-04-21T12:48:04;8.65;;;4.60;;
50605;SDS011;36557;53.572;10.170;2023-04-21T12:50:30;4.50;;;3.90;;
50605;SDS011;36557;53.572;10.170;2023-04-21T12:52:56;9.88;;;4.00;;
50605;SDS011;36557;53.572;10.170;2023-04-21T12:55:22;5.80;;;4.03;;
50605;SDS011;36557;53.572;10.170;2023-04-21T12:57:48;8.90;;;4.65;;
50605;SDS011;36557;53.572;10.170;2023-04-21T13:00:15;8.68;;;4.43;;
50605;SDS011;36557;53.572;10.170;2023-04-21T13:02:41;6.22;;;4.05;;
50605;SDS011;36557;53.572;10.170;2023-04-21T13:05:07;8.25;;;4.53;;
50605;SDS011;36557;53.572;10.170;2023-04-21T13:07:34;9.75;;;4.57;;
50605;SDS011;36557;53.572;10.170;2023-04-21T13:10:01;6.43;;;4.32;;
50605;SDS011;36557;53.572;10.170;2023-04-21T13:12:30;6.80;;;4.32;;
50605;SDS011;36557;53.572;10.170;2023-04-21T13:14:56;7.72;;;3.95;;
50605;SDS011;36557;53.572;10.170;2023-04-21T13:17:22;7.82;;;4.32;;
50605;SDS011;36557;53.572;10.170;2023-04-21T13:19:48;5.57;;;4.53;;
50605;SDS011;36557;53.572;10.170;2023-04-21T13:22:14;6.95;;;4.32;;
50605;SDS011;36557;53.572;10.170;2023-04-21T13:24:40;7.70;;;4.90;;
50605;SDS011;36557;53.572;10.170;2023-04-21T13:27:06;6.43;;;4.38;;
50605;SDS011;36557;53.572;10.170;2023-04-21T13:29:32;5.88;;;3.80;;
50605;SDS011;36557;53.572;10.170;2023-04-21T13:32:03;7.88;;;4.82;;
50605;SDS011;36557;53.572;10.170;2023-04-21T13:34:31;6.30;;;4.20;;
50605;SDS011;36557;53.572;10.170;2023-04-21T13:36:57;8.05;;;4.43;;
50605;SDS011;36557;53.572;10.170;2023-04-21T13:39:23;6.65;;;4.70;;
50605;SDS011;36557;53.572;10.170;2023-04-21T13:41:50;8.45;;;4.60;;
50605;SDS011;36557;53.572;10.170;2023-04-21T13:44:16;8.27;;;4.45;;
50605;SDS011;36557;53.572;10.170;2023-04-21T13:46:42;8.98;;;4.65;;
50605;SDS011;36557;53.572;10.170;2023-04-21T13:49:09;7.13;;;4.68;;
50605;SDS011;36557;53.572;10.170;2023-04-21T13:51:35;7.93;;;4.60;;
50605;SDS011;36557;53.572;10.170;2023-04-21T13:54:00;5.63;;;4.22;;
50605;SDS011;36557;53.572;10.170;2023-04-21T13:56:26;5.47;;;4.32;;
50605;SDS011;36557;53.572;10.170;2023-04-21T13:58:52;5.07;;;4.35;;
50605;SDS011;36557;53.572;10.170;2023-04-21T14:01:19;6.68;;;4.85;;
50605;SDS011;36557;53.572;10.170;2023-04-21T14:03:44;7.53;;;4.53;;
50605;SDS011;36557;53.572;10.170;2023-04-21T14:06:10;7.43;;;4.55;;
50605;SDS011;36557;53.572;10.170;2023-04-21T14:08:36;6.65;;;4.65;;
50605;SDS011;36557;53.572;10.170;2023-04-21T14:11:02;5.35;;;4.20;;
50605;SDS011;36557;53.572;10.170;2023-04-21T14:13:28;6.20;;;4.63;;
50605;SDS011;36557;53.572;10.170;2023-04-21T14:15:55;6.07;;;4.57;;
50605;SDS011;36557;53.572;10.170;2023-04-21T14:18:21;6.47;;;4.40;;
50605;SDS011;36557;53.572;10.170;2023-04-21T14:20:47;7.03;;;4.47;;
50605;SDS011;36557;53.572;10.170;2023-04-21T14:23:13;8.63;;;4.50;;
50605;SDS011;36557;53.572;10.170;2023-04-21T14:25:39;7.15;;;4.50;;
50605;SDS011;36557;53.572;10.170;2023-04-21T14:28:05;9.88;;;4.32;;
50605;SDS011;36557;53.572;10.170;2023-04-21T14:30:34;8.60;;;5.10;;
50605;SDS011;36557;53.572;10.170;2023-04-21T14:33:00;8.73;;;4.28;;
50605;SDS011;36557;53.572;10.170;2023-04-21T14:35:26;8.85;;;4.40;;
50605;SDS011;36557;53.572;10.170;2023-04-21T14:37:52;8.63;;;4.50;;
50605;SDS011;36557;53.572;10.170;2023-04-21T14:40:18;9.32;;;4.70;;
50605;SDS011;36557;53.572;10.170;2023-04-21T14:42:44;6.85;;;4.50;;